Boyce, Louisiana
Current Conditions -  °F | °C
As of 11:53 PM on Wednesday 26 Nov 2014 (Local Time) from KAEX Reporting Station
Clear Clear  
Wind Chill: 43°   Ceiling: Unl
Heat Index: 45°   Visibility: 10mi
Dew Point: 39°   Wind: 5mph
Humidity: 80%   Direction: 330°NNW
Pressure: 30.3"   Gusts: NA
Location:  31.39°N, 92.67°W
Report Text: KAEX 270553Z 33004KT 10SM CLR 07/04 A3030 RMK AO2 SLP265 T00720039 10144 20067 402060017 51024
Loading
Personal Weather Stations






























Interactive Weather Map New forecast layout! Learn more

10-Day Weather Forecast

Advertisements
Track Severe Weather on mobile